Time;durP1;ratioP1;P1;durP2;ratioP2;P2;SDS_P1;SDS_P2;PMS_P1;PMS_P2;Temp;Humidity;BMP_temperature;BMP_pressure;BME280_temperature;BME280_humidity;BME280_pressure;Samples;Min_cycle;Max_cycle;Signal;HPM_P1;HPM_P2
2024/03/13 00:00:46;;;;;;;7.37;3.40;;;8.10;98.00;;;;;;4956275;29;20476;-69
2024/03/13 00:03:13;;;;;;;6.60;3.37;;;8.00;98.00;;;;;;4956414;29;20468;-69
2024/03/13 00:05:40;;;;;;;5.13;3.03;;;8.00;98.00;;;;;;4939193;29;20461;-70
2024/03/13 00:08:13;;;;;;;7.90;3.40;;;8.10;98.00;;;;;;4939139;29;20528;-69
2024/03/13 00:10:40;;;;;;;7.20;3.43;;;8.10;98.00;;;;;;4956150;29;20446;-70
2024/03/13 00:13:07;;;;;;;10.50;4.20;;;8.20;98.00;;;;;;4956082;29;20524;-70
2024/03/13 00:15:34;;;;;;;7.10;3.50;;;8.10;98.00;;;;;;4955967;29;20462;-69
2024/03/13 00:18:02;;;;;;;6.40;3.37;;;8.10;98.00;;;;;;4938931;29;20465;-70
2024/03/13 00:20:30;;;;;;;8.60;3.47;;;8.10;98.00;;;;;;4956030;29;20455;-69
2024/03/13 00:22:57;;;;;;;15.20;3.13;;;8.10;98.00;;;;;;4955706;28;20463;-69
2024/03/13 00:25:26;;;;;;;6.83;3.20;;;8.10;98.00;;;;;;4955807;29;20931;-69
2024/03/13 00:27:53;;;;;;;6.07;2.67;;;8.10;98.00;;;;;;4956042;29;20463;-69
2024/03/13 00:30:21;;;;;;;5.07;3.00;;;8.10;98.00;;;;;;4956138;29;20456;-69
2024/03/13 00:32:52;;;;;;;4.67;2.60;;;8.20;98.00;;;;;;4956011;29;20463;-69
2024/03/13 00:35:20;;;;;;;3.83;2.33;;;8.20;98.00;;;;;;4956129;29;20457;-69
2024/03/13 00:37:47;;;;;;;2.63;2.20;;;8.20;98.00;;;;;;4956045;29;20458;-70
2024/03/13 00:40:14;;;;;;;4.97;2.30;;;8.20;98.00;;;;;;4956007;28;20473;-70
2024/03/13 00:42:43;;;;;;;6.13;2.80;;;8.10;98.00;;;;;;4957239;29;20535;-69
2024/03/13 00:45:11;;;;;;;4.00;2.33;;;8.00;98.00;;;;;;4939783;29;20446;-69
2024/03/13 00:47:41;;;;;;;2.87;2.00;;;8.00;98.00;;;;;;4956636;29;20942;-70
2024/03/13 00:50:12;;;;;;;3.50;2.30;;;8.00;98.00;;;;;;4955794;29;20458;-70
2024/03/13 00:52:40;;;;;;;3.97;2.30;;;8.00;98.00;;;;;;4955595;29;20545;-70
2024/03/13 00:55:10;;;;;;;3.70;2.20;;;8.10;98.00;;;;;;4955577;29;20451;-69
2024/03/13 00:57:41;;;;;;;3.00;1.90;;;8.00;98.00;;;;;;4938766;29;20461;-69
2024/03/13 01:00:11;;;;;;;3.30;2.33;;;8.00;98.00;;;;;;4955489;29;20457;-69
2024/03/13 01:02:41;;;;;;;4.43;1.83;;;7.90;98.00;;;;;;4954317;28;20465;-70
2024/03/13 01:05:10;;;;;;;4.33;2.00;;;7.90;98.00;;;;;;4938347;29;20509;-69
2024/03/13 01:07:37;;;;;;;2.20;1.60;;;7.90;98.00;;;;;;4955301;29;20494;-70
2024/03/13 01:10:05;;;;;;;2.37;1.70;;;8.00;98.00;;;;;;4955039;29;20493;-70
2024/03/13 01:12:34;;;;;;;1.90;1.50;;;8.00;98.00;;;;;;4955134;28;20483;-70
2024/03/13 01:15:09;;;;;;;1.90;1.60;;;8.00;98.00;;;;;;4955111;28;20458;-69
2024/03/13 01:17:38;;;;;;;2.10;1.70;;;8.00;98.00;;;;;;4954997;29;20462;-69
2024/03/13 01:20:07;;;;;;;1.73;1.50;;;7.90;98.00;;;;;;4954939;29;20466;-69
2024/03/13 01:22:34;;;;;;;1.47;1.40;;;8.00;98.00;;;;;;4955202;29;20820;-70
2024/03/13 01:25:01;;;;;;;1.90;1.43;;;7.90;98.00;;;;;;4937673;29;20501;-69
2024/03/13 01:27:29;;;;;;;2.23;1.47;;;7.90;98.00;;;;;;4954776;29;20458;-69
2024/03/13 01:29:56;;;;;;;2.17;1.70;;;7.80;98.00;;;;;;4954650;29;20525;-70
2024/03/13 01:32:25;;;;;;;3.10;1.60;;;7.80;98.00;;;;;;4954692;29;20462;-69
2024/03/13 01:34:53;;;;;;;2.53;1.70;;;7.80;98.00;;;;;;4954809;29;20874;-69
2024/03/13 01:40:08;;;;;;;1.50;1.40;;;7.80;98.00;;;;;;4940042;29;20988;-69
2024/03/13 01:57:13;;;;;;;1.93;1.30;;;7.70;98.00;;;;;;4913469;29;20475;-69
2024/03/13 01:59:49;;;;;;;1.80;1.40;;;7.70;98.00;;;;;;4913630;29;20456;-69
2024/03/13 02:02:24;;;;;;;3.60;1.70;;;7.60;98.00;;;;;;4935371;29;20967;-69
2024/03/13 02:04:53;;;;;;;4.90;1.60;;;7.60;98.00;;;;;;4954190;29;20865;-70
2024/03/13 02:07:24;;;;;;;2.70;2.00;;;7.50;98.00;;;;;;4953947;29;20492;-69
2024/03/13 02:09:52;;;;;;;2.20;1.70;;;7.50;98.00;;;;;;4953939;29;20501;-69
2024/03/13 02:12:20;;;;;;;1.80;1.43;;;7.50;98.00;;;;;;4936525;28;20460;-69
2024/03/13 02:14:47;;;;;;;2.70;1.70;;;7.60;98.00;;;;;;4954212;29;20799;-69
2024/03/13 02:17:14;;;;;;;2.40;1.90;;;7.70;98.00;;;;;;4953815;29;20465;-69
2024/03/13 02:19:42;;;;;;;5.03;1.93;;;7.50;98.00;;;;;;4954307;29;20838;-69
2024/03/13 02:22:09;;;;;;;3.80;1.97;;;7.60;98.00;;;;;;4953729;29;20469;-69
2024/03/13 02:24:37;;;;;;;4.03;1.87;;;7.60;98.00;;;;;;4937031;29;20480;-69
2024/03/13 02:27:10;;;;;;;3.50;2.03;;;7.50;98.00;;;;;;4936875;29;20472;-69
2024/03/13 02:29:37;;;;;;;2.87;2.00;;;7.50;98.00;;;;;;4937300;29;20568;-69
2024/03/13 02:32:05;;;;;;;3.00;1.70;;;7.50;98.00;;;;;;4921351;29;20492;-69
2024/03/13 02:34:32;;;;;;;2.90;1.80;;;7.50;98.00;;;;;;4936853;29;20972;-69
2024/03/13 02:37:00;;;;;;;3.13;1.70;;;7.40;98.00;;;;;;4936646;29;20535;-69
2024/03/13 02:39:27;;;;;;;2.83;1.63;;;7.40;98.00;;;;;;4936630;28;20469;-69
2024/03/13 02:41:54;;;;;;;2.20;1.50;;;7.30;98.00;;;;;;4936489;29;20978;-69
2024/03/13 02:44:21;;;;;;;1.73;1.50;;;7.40;98.00;;;;;;4936574;29;20462;-69
2024/03/13 02:46:48;;;;;;;1.90;1.50;;;7.30;98.00;;;;;;4936374;29;20475;-69
2024/03/13 02:49:16;;;;;;;1.97;1.43;;;7.30;98.00;;;;;;4936438;29;20493;-69
2024/03/13 02:51:43;;;;;;;1.73;1.40;;;7.30;98.00;;;;;;4936133;29;20462;-69
2024/03/13 02:54:10;;;;;;;2.93;1.53;;;7.40;98.00;;;;;;4936343;29;20983;-69
2024/03/13 02:56:38;;;;;;;2.37;1.60;;;7.30;98.00;;;;;;4936234;29;20465;-69
2024/03/13 02:59:07;;;;;;;1.90;1.50;;;7.20;98.00;;;;;;4936573;29;20458;-69
2024/03/13 03:01:34;;;;;;;2.00;1.53;;;7.10;98.00;;;;;;4936023;29;20454;-69
2024/03/13 03:04:01;;;;;;;1.70;1.40;;;7.00;98.00;;;;;;4936163;29;20550;-70
2024/03/13 03:06:28;;;;;;;1.60;1.43;;;7.10;98.00;;;;;;4936261;29;20473;-69
2024/03/13 03:08:57;;;;;;;1.80;1.50;;;7.10;98.00;;;;;;4920414;29;20485;-69
2024/03/13 03:11:25;;;;;;;2.70;1.50;;;7.10;98.00;;;;;;4936105;29;20970;-69
2024/03/13 03:13:52;;;;;;;2.13;1.77;;;7.00;98.00;;;;;;4936198;29;20462;-69
2024/03/13 03:16:19;;;;;;;1.53;1.30;;;7.00;98.00;;;;;;4936009;29;20461;-69
2024/03/13 03:18:47;;;;;;;1.40;1.20;;;6.90;98.00;;;;;;4936071;29;20517;-69
2024/03/13 03:21:14;;;;;;;2.00;1.40;;;6.90;98.00;;;;;;4920249;29;20484;-69
2024/03/13 03:23:41;;;;;;;2.13;1.20;;;6.80;98.00;;;;;;4936130;28;20522;-69
2024/03/13 03:26:09;;;;;;;2.50;1.43;;;6.80;98.00;;;;;;4939063;29;20855;-69
2024/03/13 03:28:36;;;;;;;1.90;1.30;;;6.80;98.00;;;;;;4924464;29;20460;-69
2024/03/13 03:31:04;;;;;;;2.30;1.50;;;6.80;98.00;;;;;;4939675;29;20469;-69
2024/03/13 03:33:32;;;;;;;1.50;1.40;;;6.70;98.00;;;;;;4924039;29;20460;-69
2024/03/13 03:35:59;;;;;;;5.73;1.40;;;6.80;98.00;;;;;;4939741;29;20461;-69
2024/03/13 03:38:29;;;;;;;2.07;1.57;;;6.90;98.00;;;;;;4939681;29;20466;-69
2024/03/13 03:40:56;;;;;;;1.80;1.50;;;7.00;98.00;;;;;;4939818;29;20473;-69
2024/03/13 03:43:23;;;;;;;4.80;1.40;;;7.00;98.00;;;;;;4939792;29;20483;-69
2024/03/13 03:45:51;;;;;;;1.70;1.40;;;7.10;98.00;;;;;;4939339;29;20467;-70
2024/03/13 03:48:18;;;;;;;1.67;1.50;;;7.20;98.00;;;;;;4939572;29;20458;-69
2024/03/13 03:50:46;;;;;;;1.50;1.30;;;7.10;98.00;;;;;;4939496;29;20505;-69
2024/03/13 03:53:13;;;;;;;1.80;1.40;;;7.10;98.00;;;;;;4939498;29;20484;-69
2024/03/13 03:55:40;;;;;;;4.80;1.20;;;7.00;98.00;;;;;;4939140;29;20465;-69
2024/03/13 03:58:07;;;;;;;1.60;1.40;;;6.90;98.00;;;;;;4923774;29;20461;-69
2024/03/13 04:00:35;;;;;;;1.70;1.27;;;6.80;98.00;;;;;;4939351;29;20452;-69
2024/03/13 04:03:02;;;;;;;2.23;1.30;;;6.90;98.00;;;;;;4939366;29;20454;-69
2024/03/13 04:05:29;;;;;;;1.60;1.30;;;7.00;98.00;;;;;;4939386;29;20473;-69
2024/03/13 04:07:58;;;;;;;1.63;1.20;;;7.00;98.00;;;;;;4938746;29;21031;-69
2024/03/13 04:10:25;;;;;;;1.73;1.30;;;6.90;98.00;;;;;;4939397;29;20588;-69
2024/03/13 04:12:52;;;;;;;1.40;1.30;;;6.80;98.00;;;;;;4939435;29;20458;-69
2024/03/13 04:15:23;;;;;;;1.90;1.50;;;6.80;98.00;;;;;;4939456;29;20470;-69
2024/03/13 04:17:51;;;;;;;1.80;1.50;;;6.80;98.00;;;;;;4939606;29;20480;-69
2024/03/13 04:20:18;;;;;;;2.60;1.57;;;6.80;98.00;;;;;;4939396;29;20879;-69
2024/03/13 04:22:46;;;;;;;2.50;1.60;;;6.70;98.00;;;;;;4940296;29;20546;-69
2024/03/13 04:25:14;;;;;;;3.20;1.80;;;6.70;98.00;;;;;;4939017;29;20462;-69
2024/03/13 04:27:42;;;;;;;3.87;2.10;;;6.70;98.00;;;;;;4939144;29;20452;-69
2024/03/13 04:30:09;;;;;;;4.10;2.10;;;6.70;98.00;;;;;;4923111;29;20528;-69
2024/03/13 04:32:36;;;;;;;2.43;1.67;;;6.70;98.00;;;;;;4938660;29;20991;-69
2024/03/13 04:35:03;;;;;;;2.03;1.53;;;6.80;98.00;;;;;;4938822;29;20464;-69
2024/03/13 04:37:32;;;;;;;1.50;1.37;;;6.70;98.00;;;;;;4936751;29;20461;-69
2024/03/13 04:39:59;;;;;;;3.50;1.80;;;6.80;98.00;;;;;;4938789;29;20833;-69
2024/03/13 04:42:26;;;;;;;3.60;1.70;;;6.80;98.00;;;;;;4938177;29;20532;-69
2024/03/13 04:44:58;;;;;;;2.30;1.50;;;7.00;98.00;;;;;;4938519;29;20509;-69
2024/03/13 04:47:25;;;;;;;1.97;1.50;;;7.10;98.00;;;;;;4938958;29;20944;-69
2024/03/13 04:49:52;;;;;;;2.23;1.50;;;7.10;98.00;;;;;;4938357;29;20492;-69
2024/03/13 04:52:21;;;;;;;1.90;1.57;;;7.00;98.00;;;;;;4938299;29;20477;-69
2024/03/13 04:54:48;;;;;;;2.90;1.67;;;7.00;98.00;;;;;;4938451;29;20454;-69
2024/03/13 04:57:15;;;;;;;2.60;1.80;;;7.00;98.00;;;;;;4938287;29;20541;-69
2024/03/13 04:59:44;;;;;;;2.70;1.80;;;7.00;98.00;;;;;;4938351;29;20469;-69
2024/03/13 05:02:11;;;;;;;2.43;1.70;;;6.90;98.00;;;;;;4937601;29;20484;-69
2024/03/13 05:04:38;;;;;;;4.37;1.87;;;6.90;98.00;;;;;;4938275;29;20464;-69
2024/03/13 05:07:08;;;;;;;3.67;1.70;;;7.00;98.00;;;;;;4938197;29;20465;-69
2024/03/13 05:09:35;;;;;;;2.43;1.83;;;7.00;98.00;;;;;;4938375;29;20496;-69
2024/03/13 05:12:03;;;;;;;3.00;1.73;;;7.00;98.00;;;;;;4922360;29;20550;-69
2024/03/13 05:14:30;;;;;;;3.03;1.80;;;7.10;98.00;;;;;;4938042;29;20894;-69
2024/03/13 05:17:01;;;;;;;4.87;2.10;;;7.10;98.00;;;;;;4937650;29;20477;-69
2024/03/13 05:19:28;;;;;;;2.30;1.70;;;7.20;98.00;;;;;;4938440;29;20879;-69
2024/03/13 05:21:57;;;;;;;2.63;1.80;;;7.10;98.00;;;;;;4937783;29;20844;-69
2024/03/13 05:24:24;;;;;;;2.63;1.73;;;7.30;98.00;;;;;;4953709;28;20468;-69
2024/03/13 05:26:52;;;;;;;4.17;2.20;;;7.20;98.00;;;;;;4956513;28;20461;-69
2024/03/13 05:29:19;;;;;;;3.20;2.00;;;7.00;98.00;;;;;;4957005;28;20457;-69
2024/03/13 05:31:46;;;;;;;3.20;2.10;;;7.00;98.00;;;;;;4957206;28;20465;-69
2024/03/13 05:34:14;;;;;;;3.50;2.20;;;7.00;98.00;;;;;;4956496;28;20461;-69
2024/03/13 05:36:41;;;;;;;2.20;1.80;;;6.90;98.00;;;;;;4955577;28;20955;-69
2024/03/13 05:39:07;;;;;;;4.13;2.07;;;7.00;98.00;;;;;;4956515;28;20461;-69
2024/03/13 05:41:34;;;;;;;2.07;1.90;;;6.90;98.00;;;;;;4956454;28;20871;-69
2024/03/13 05:44:01;;;;;;;4.33;2.30;;;7.00;98.00;;;;;;4956683;28;21141;-69
2024/03/13 05:46:29;;;;;;;2.53;1.90;;;7.00;98.00;;;;;;4956506;28;20952;-69
2024/03/13 05:48:59;;;;;;;3.23;1.77;;;7.00;98.00;;;;;;4956004;28;20480;-69
2024/03/13 05:51:26;;;;;;;3.60;2.17;;;7.00;98.00;;;;;;4940928;28;20526;-69
2024/03/13 05:53:53;;;;;;;2.47;1.90;;;7.10;98.00;;;;;;4956580;28;20552;-69
2024/03/13 05:56:21;;;;;;;3.17;2.10;;;7.10;98.00;;;;;;4956742;28;20484;-69
2024/03/13 05:58:48;;;;;;;2.90;2.00;;;7.10;98.00;;;;;;4956734;28;21131;-69
2024/03/13 06:01:15;;;;;;;2.70;2.10;;;7.10;98.00;;;;;;4940680;28;20462;-69
2024/03/13 06:03:42;;;;;;;3.63;2.37;;;7.20;98.00;;;;;;4956601;28;20743;-69
2024/03/13 06:06:11;;;;;;;3.37;2.10;;;7.30;98.00;;;;;;4956404;28;20463;-69
2024/03/13 06:08:38;;;;;;;2.23;2.00;;;7.20;98.00;;;;;;4956773;28;20458;-70
2024/03/13 06:11:09;;;;;;;3.57;2.23;;;7.20;98.00;;;;;;4956540;28;20492;-69
2024/03/13 06:13:36;;;;;;;2.33;2.00;;;7.20;98.00;;;;;;4956744;28;20468;-69
2024/03/13 06:16:04;;;;;;;3.00;2.20;;;7.20;98.00;;;;;;4957426;28;20497;-69
2024/03/13 06:18:31;;;;;;;2.73;1.90;;;7.30;98.00;;;;;;4955233;28;20464;-69
2024/03/13 06:20:58;;;;;;;3.50;2.40;;;7.40;98.00;;;;;;4956391;28;20453;-69
2024/03/13 06:23:27;;;;;;;2.73;2.10;;;7.50;98.00;;;;;;4956424;28;20461;-69
2024/03/13 06:25:57;;;;;;;3.87;2.37;;;7.60;98.00;;;;;;4956814;28;20544;-69
2024/03/13 06:31:08;;;;;;;3.00;2.30;;;7.90;98.00;;;;;;4959003;28;20546;-69
2024/03/13 06:33:36;;;;;;;2.93;2.20;;;8.00;98.00;;;;;;4956663;28;20810;-69
2024/03/13 06:36:04;;;;;;;3.63;2.37;;;7.90;98.00;;;;;;4956372;28;20544;-69
2024/03/13 06:38:32;;;;;;;3.90;2.63;;;7.80;98.00;;;;;;4956561;28;20457;-69
2024/03/13 06:41:00;;;;;;;5.37;2.57;;;7.80;98.00;;;;;;4956271;28;20473;-69
2024/03/13 06:43:28;;;;;;;4.83;2.80;;;7.80;98.00;;;;;;4956550;28;20894;-69
2024/03/13 06:45:56;;;;;;;6.60;2.30;;;7.90;98.00;;;;;;4956189;28;20454;-69
2024/03/13 06:48:26;;;;;;;3.47;2.40;;;7.90;98.00;;;;;;4956398;28;20518;-69
2024/03/13 06:50:53;;;;;;;3.00;2.50;;;7.90;98.00;;;;;;4956445;28;20499;-69
2024/03/13 06:53:20;;;;;;;5.40;2.70;;;7.90;98.00;;;;;;4956268;28;20468;-69
2024/03/13 06:55:47;;;;;;;4.27;2.87;;;8.00;98.00;;;;;;4956268;28;20462;-69
2024/03/13 06:58:14;;;;;;;5.20;3.17;;;8.30;98.00;;;;;;4940399;28;20952;-70
2024/03/13 07:00:42;;;;;;;5.57;2.50;;;8.50;98.00;;;;;;4955437;28;20463;-75
2024/03/13 07:03:09;;;;;;;3.60;2.37;;;8.70;98.00;;;;;;4956160;28;20823;-76
2024/03/13 07:05:36;;;;;;;4.30;2.80;;;8.60;98.00;;;;;;4956199;28;20468;-76
2024/03/13 07:08:03;;;;;;;3.70;2.40;;;8.70;98.00;;;;;;4955979;28;20465;-75
2024/03/13 07:10:30;;;;;;;4.90;2.70;;;8.70;98.00;;;;;;4939454;28;21029;-76
2024/03/13 07:12:57;;;;;;;3.93;2.77;;;8.70;98.00;;;;;;4955999;28;20522;-75
2024/03/13 07:15:25;;;;;;;5.07;2.97;;;8.70;98.00;;;;;;4955932;28;20484;-75
2024/03/13 07:17:53;;;;;;;5.73;3.20;;;8.80;98.00;;;;;;4956027;28;20461;-73
2024/03/13 07:20:20;;;;;;;3.83;2.43;;;8.70;98.00;;;;;;4955986;28;20472;-73
2024/03/13 07:22:47;;;;;;;6.20;3.40;;;8.60;98.00;;;;;;4955955;28;20461;-73
2024/03/13 07:25:14;;;;;;;8.10;3.87;;;8.50;98.00;;;;;;4955855;28;20937;-73
2024/03/13 07:27:41;;;;;;;4.60;3.03;;;8.60;98.00;;;;;;4955869;28;20802;-73
2024/03/13 07:30:10;;;;;;;8.23;2.83;;;8.80;98.00;;;;;;4940416;28;20552;-73
2024/03/13 07:32:39;;;;;;;5.10;2.87;;;8.90;98.00;;;;;;4956045;28;20849;-73
2024/03/13 07:35:09;;;;;;;4.90;2.90;;;8.80;98.00;;;;;;4940456;28;20548;-75
2024/03/13 07:37:36;;;;;;;4.70;2.77;;;9.10;98.00;;;;;;4956330;28;20457;-74
2024/03/13 07:40:05;;;;;;;3.80;2.80;;;9.10;98.00;;;;;;4955754;28;20468;-73
2024/03/13 07:42:32;;;;;;;4.47;2.63;;;9.10;98.00;;;;;;4955602;28;20490;-74
2024/03/13 07:44:59;;;;;;;4.10;2.73;;;9.30;98.00;;;;;;4955581;28;20461;-74
2024/03/13 07:47:26;;;;;;;4.30;2.50;;;9.40;98.00;;;;;;4940071;28;20466;-73
2024/03/13 07:49:54;;;;;;;4.57;2.63;;;;;;;;;;4955513;28;20464;-71
2024/03/13 07:52:21;;;;;;;5.30;2.37;;;9.30;98.00;;;;;;4955754;28;20867;-73
2024/03/13 07:54:49;;;;;;;3.00;2.57;;;9.40;98.00;;;;;;4955898;28;20905;-72
2024/03/13 07:57:16;;;;;;;13.97;6.07;;;9.40;98.00;;;;;;4956127;28;20459;-73
2024/03/13 07:59:45;;;;;;;4.70;2.87;;;9.40;98.00;;;;;;4955923;28;20770;-73
2024/03/13 08:02:12;;;;;;;8.50;2.37;;;9.40;98.00;;;;;;4956027;28;20451;-73
2024/03/13 08:04:39;;;;;;;3.37;2.20;;;9.50;98.00;;;;;;4955333;28;20538;-73
2024/03/13 08:07:09;;;;;;;4.10;2.20;;;9.70;98.00;;;;;;4955421;28;20465;-73
2024/03/13 08:09:37;;;;;;;4.00;2.40;;;9.80;98.00;;;;;;4956003;28;20470;-73
2024/03/13 08:12:05;;;;;;;2.57;2.00;;;9.80;98.00;;;;;;4958421;28;20498;-73
2024/03/13 08:14:34;;;;;;;2.33;2.00;;;9.80;98.00;;;;;;4958863;28;20463;-73
2024/03/13 08:17:04;;;;;;;2.93;2.00;;;9.80;98.00;;;;;;4959057;28;20543;-73
2024/03/13 08:19:31;;;;;;;5.50;2.20;;;9.80;98.00;;;;;;4959627;28;20544;-73
2024/03/13 08:21:58;;;;;;;2.83;2.00;;;9.90;98.00;;;;;;4958418;28;20467;-73
2024/03/13 08:24:27;;;;;;;2.73;2.10;;;9.90;98.00;;;;;;4958972;28;20471;-73
2024/03/13 08:26:54;;;;;;;3.10;2.23;;;10.00;98.00;;;;;;4958822;28;20458;-73
2024/03/13 08:29:21;;;;;;;7.50;3.50;;;10.00;98.00;;;;;;4958923;28;20459;-73
2024/03/13 08:31:50;;;;;;;6.03;3.23;;;9.90;98.00;;;;;;4958628;28;20897;-73
2024/03/13 08:34:24;;;;;;;3.50;2.40;;;10.00;98.00;;;;;;4958857;28;20467;-73
2024/03/13 08:36:53;;;;;;;2.90;2.47;;;9.90;98.00;;;;;;4959740;28;20462;-73
2024/03/13 08:39:26;;;;;;;2.37;2.00;;;10.00;98.00;;;;;;4958778;28;20466;-73
2024/03/13 08:41:53;;;;;;;3.60;2.03;;;10.10;98.00;;;;;;4958965;28;20963;-73
2024/03/13 08:44:20;;;;;;;3.03;2.20;;;10.10;98.00;;;;;;4958837;28;20461;-73
2024/03/13 08:46:48;;;;;;;3.27;2.10;;;10.20;98.00;;;;;;4958696;28;20460;-73
2024/03/13 08:49:15;;;;;;;3.53;2.30;;;10.20;98.00;;;;;;4958312;28;20492;-73
2024/03/13 08:51:42;;;;;;;3.07;2.17;;;10.10;98.00;;;;;;4942491;28;20504;-73
2024/03/13 08:54:11;;;;;;;3.23;2.30;;;10.00;98.00;;;;;;4942361;28;20526;-73
2024/03/13 08:56:39;;;;;;;2.10;1.90;;;10.00;98.00;;;;;;4958574;28;20454;-73
2024/03/13 08:59:06;;;;;;;2.20;1.80;;;10.10;98.00;;;;;;4958232;28;20493;-73
2024/03/13 09:01:33;;;;;;;3.60;2.20;;;10.10;98.00;;;;;;4958048;28;20504;-75
2024/03/13 09:04:00;;;;;;;2.33;1.90;;;10.10;98.00;;;;;;4958381;28;20582;-73
2024/03/13 09:06:28;;;;;;;2.57;2.10;;;10.20;98.00;;;;;;4958227;28;20449;-73
2024/03/13 09:08:55;;;;;;;3.50;2.07;;;10.20;98.00;;;;;;4958463;28;20460;-73
2024/03/13 09:11:22;;;;;;;3.60;2.10;;;10.30;98.00;;;;;;4957910;28;20490;-73
2024/03/13 09:13:50;;;;;;;3.07;1.93;;;10.30;98.00;;;;;;4958149;28;20859;-73
2024/03/13 09:16:17;;;;;;;2.70;2.00;;;10.40;98.00;;;;;;4957922;28;20476;-74
2024/03/13 09:18:44;;;;;;;3.33;2.30;;;10.40;98.00;;;;;;4957681;28;20469;-73
2024/03/13 09:21:12;;;;;;;2.80;2.10;;;10.40;98.00;;;;;;4952009;28;20945;-74
2024/03/13 09:23:39;;;;;;;3.53;2.10;;;10.40;98.00;;;;;;4937735;29;20469;-73
2024/03/13 09:26:06;;;;;;;2.50;2.10;;;10.40;98.00;;;;;;4938556;28;20466;-73
2024/03/13 09:28:33;;;;;;;2.63;2.20;;;10.40;98.00;;;;;;4938320;29;20473;-73
2024/03/13 09:31:02;;;;;;;3.20;2.50;;;10.30;98.00;;;;;;4938211;28;20492;-74
2024/03/13 09:33:31;;;;;;;5.00;2.37;;;10.40;98.00;;;;;;4938602;29;20473;-74
2024/03/13 09:35:59;;;;;;;4.27;2.30;;;10.60;98.00;;;;;;4938511;28;20472;-73
2024/03/13 09:38:27;;;;;;;2.90;2.07;;;10.70;98.00;;;;;;4938539;29;20500;-74
2024/03/13 09:40:55;;;;;;;2.10;1.80;;;10.60;98.00;;;;;;4937311;29;20481;-74
2024/03/13 09:43:23;;;;;;;3.10;1.97;;;10.50;98.00;;;;;;4937462;29;20450;-73
2024/03/13 09:45:50;;;;;;;7.13;2.07;;;10.50;98.00;;;;;;4937507;29;20457;-73
2024/03/13 09:48:18;;;;;;;3.07;2.00;;;10.70;98.00;;;;;;4937316;29;20479;-73
2024/03/13 09:50:47;;;;;;;2.87;1.87;;;10.80;98.00;;;;;;4936461;29;20496;-73
2024/03/13 09:53:14;;;;;;;2.57;1.93;;;10.80;98.00;;;;;;4937340;28;20470;-74
2024/03/13 09:55:42;;;;;;;2.97;1.90;;;10.90;98.00;;;;;;4937301;29;20984;-72
2024/03/13 09:58:09;;;;;;;2.50;2.00;;;10.90;98.00;;;;;;4921521;29;20465;-73
2024/03/13 10:00:38;;;;;;;2.27;1.87;;;10.80;98.00;;;;;;4937164;29;20473;-73
2024/03/13 10:03:05;;;;;;;5.40;2.00;;;10.70;98.00;;;;;;4936953;28;20461;-75
2024/03/13 10:05:32;;;;;;;2.23;1.90;;;10.70;98.00;;;;;;4937124;29;20836;-73
2024/03/13 10:07:59;;;;;;;2.70;2.10;;;10.90;98.00;;;;;;4936476;29;20470;-73
2024/03/13 10:10:28;;;;;;;3.70;2.10;;;10.90;98.00;;;;;;4936840;28;20876;-73
2024/03/13 10:12:55;;;;;;;3.00;1.90;;;10.80;98.00;;;;;;4952109;28;20499;-73
2024/03/13 10:15:22;;;;;;;3.13;2.23;;;10.80;98.00;;;;;;4951950;28;20486;-73
2024/03/13 10:17:50;;;;;;;3.10;2.03;;;10.80;98.00;;;;;;4933030;28;20464;-73
2024/03/13 10:20:17;;;;;;;2.10;1.80;;;10.80;98.00;;;;;;4955802;28;20983;-73
2024/03/13 10:22:45;;;;;;;6.80;2.30;;;10.80;98.00;;;;;;4955200;28;20489;-73
2024/03/13 10:25:15;;;;;;;2.67;2.10;;;10.90;98.00;;;;;;4955745;28;20458;-73
2024/03/13 10:27:43;;;;;;;4.37;2.70;;;11.00;98.00;;;;;;4956121;28;20450;-72
2024/03/13 10:30:11;;;;;;;7.23;3.73;;;11.10;98.00;;;;;;4955787;28;20463;-72
2024/03/13 10:32:39;;;;;;;6.07;3.80;;;11.10;98.00;;;;;;4955564;28;20485;-73
2024/03/13 10:35:08;;;;;;;4.53;3.03;;;11.10;98.00;;;;;;4955276;28;20530;-71
2024/03/13 10:37:36;;;;;;;4.13;3.03;;;11.10;98.00;;;;;;4955613;28;20466;-74
2024/03/13 10:40:05;;;;;;;5.37;3.37;;;11.10;98.00;;;;;;4931763;28;329669;-73
2024/03/13 10:42:33;;;;;;;3.43;2.50;;;11.20;98.00;;;;;;4937307;29;20462;-74
2024/03/13 10:45:00;;;;;;;4.47;2.70;;;11.10;98.00;;;;;;4936926;29;20467;-74
2024/03/13 10:47:28;;;;;;;7.67;3.60;;;11.10;98.00;;;;;;4937129;29;20470;-74
2024/03/13 10:49:55;;;;;;;3.30;2.40;;;11.20;98.00;;;;;;4937107;29;20470;-74
2024/03/13 10:52:22;;;;;;;4.57;2.63;;;11.20;98.00;;;;;;4936867;29;20489;-74
2024/03/13 10:54:50;;;;;;;4.23;2.90;;;11.20;98.00;;;;;;4936960;29;20457;-73
2024/03/13 10:57:17;;;;;;;3.60;2.57;;;11.20;98.00;;;;;;4936864;29;20472;-73
2024/03/13 10:59:48;;;;;;;5.70;2.63;;;11.20;98.00;;;;;;4937015;29;20456;-73
2024/03/13 11:02:15;;;;;;;5.30;3.00;;;11.20;98.00;;;;;;4939960;29;20456;-73
2024/03/13 11:04:44;;;;;;;5.20;3.30;;;11.40;98.00;;;;;;4936726;29;20471;-73
2024/03/13 11:07:13;;;;;;;4.10;2.50;;;11.50;98.00;;;;;;4937999;29;20456;-73
2024/03/13 11:09:40;;;;;;;3.70;2.53;;;11.60;98.00;;;;;;4937002;29;20496;-72
2024/03/13 11:12:10;;;;;;;5.60;2.47;;;11.80;98.00;;;;;;4936309;29;21002;-72
2024/03/13 11:14:38;;;;;;;6.80;3.00;;;11.90;98.00;;;;;;4936904;29;20472;-72
2024/03/13 11:17:05;;;;;;;4.67;2.83;;;12.10;98.00;;;;;;4936732;29;20472;-73
2024/03/13 11:19:33;;;;;;;3.97;2.70;;;12.00;98.00;;;;;;4936858;29;20470;-72
2024/03/13 11:22:00;;;;;;;4.13;2.60;;;11.80;98.00;;;;;;4936763;29;20540;-72
2024/03/13 11:24:29;;;;;;;4.40;2.90;;;11.80;98.00;;;;;;4937018;29;20501;-72
2024/03/13 11:26:57;;;;;;;4.20;2.90;;;12.10;98.00;;;;;;4937324;29;20538;-73
2024/03/13 11:29:24;;;;;;;3.60;2.53;;;12.10;98.00;;;;;;4936098;29;20946;-73
2024/03/13 11:31:52;;;;;;;3.70;2.47;;;12.20;98.00;;;;;;4936213;29;20493;-73
2024/03/13 11:34:21;;;;;;;3.03;2.30;;;12.20;98.00;;;;;;4905085;29;20469;-73
2024/03/13 11:36:48;;;;;;;2.63;2.33;;;12.20;98.00;;;;;;4936538;29;20466;-73
2024/03/13 11:39:16;;;;;;;5.80;2.30;;;12.10;98.00;;;;;;4936363;29;20500;-73
2024/03/13 11:41:44;;;;;;;3.17;2.53;;;12.10;98.00;;;;;;4936325;29;20511;-73
2024/03/13 11:44:15;;;;;;;3.60;2.67;;;12.10;98.00;;;;;;4936680;29;20555;-73
2024/03/13 11:46:45;;;;;;;3.23;2.60;;;12.20;98.00;;;;;;4938889;29;20455;-73
2024/03/13 11:49:14;;;;;;;4.03;2.63;;;12.20;98.00;;;;;;4939943;29;20768;-73
2024/03/13 11:52:11;;;;;;;4.53;2.70;;;12.20;98.00;;;;;;4939851;29;20487;-73
2024/03/13 11:54:39;;;;;;;4.67;2.63;;;12.20;98.00;;;;;;4939461;29;20465;-73
2024/03/13 11:57:06;;;;;;;3.30;2.17;;;12.20;98.00;;;;;;4938759;29;20460;-75
2024/03/13 11:59:43;;;;;;;2.70;2.20;;;12.10;98.00;;;;;;4938446;29;20487;-75
2024/03/13 12:02:37;;;;;;;3.93;2.40;;;12.10;98.00;;;;;;4939499;29;20471;-75
2024/03/13 12:05:06;;;;;;;4.07;2.70;;;12.10;98.00;;;;;;4938662;29;20463;-75
2024/03/13 12:07:35;;;;;;;4.17;2.70;;;12.10;98.00;;;;;;4939957;29;20465;-74
2024/03/13 12:10:04;;;;;;;6.20;2.50;;;12.00;98.00;;;;;;4939970;29;20473;-75
2024/03/13 12:12:31;;;;;;;4.63;3.07;;;12.10;98.00;;;;;;4939706;29;20498;-75
2024/03/13 12:14:59;;;;;;;3.10;2.30;;;12.20;98.00;;;;;;4940088;29;20458;-75
2024/03/13 12:17:29;;;;;;;3.70;2.60;;;12.20;98.00;;;;;;4939749;29;20470;-75
2024/03/13 12:19:57;;;;;;;3.20;2.20;;;12.20;98.00;;;;;;4939844;29;20942;-75
2024/03/13 12:22:24;;;;;;;2.60;2.10;;;12.30;98.00;;;;;;4939549;29;20535;-74
2024/03/13 12:24:51;;;;;;;3.10;2.30;;;12.20;98.00;;;;;;4939788;29;20475;-75
2024/03/13 12:27:18;;;;;;;3.80;2.37;;;12.30;98.00;;;;;;4939431;29;20472;-75
2024/03/13 12:29:46;;;;;;;4.43;2.77;;;12.40;98.00;;;;;;4939637;29;20486;-69
2024/03/13 12:32:13;;;;;;;10.20;2.93;;;12.40;98.00;;;;;;4939272;29;20496;-73
2024/03/13 12:34:43;;;;;;;3.30;2.40;;;12.40;98.00;;;;;;4939434;29;20516;-73
2024/03/13 12:37:15;;;;;;;2.90;2.30;;;12.40;98.00;;;;;;4939701;29;20466;-74
2024/03/13 12:39:42;;;;;;;3.13;2.40;;;12.40;98.00;;;;;;4939415;29;20469;-73
2024/03/13 12:42:12;;;;;;;2.90;2.20;;;12.40;98.00;;;;;;4939096;29;20534;-73
2024/03/13 12:44:40;;;;;;;3.40;2.50;;;12.40;98.00;;;;;;4939706;29;20807;-72
2024/03/13 12:47:12;;;;;;;3.83;2.53;;;12.40;98.00;;;;;;4939403;29;20471;-73
2024/03/13 12:49:41;;;;;;;2.93;2.40;;;12.40;98.00;;;;;;4940037;29;20465;-74
2024/03/13 12:52:08;;;;;;;3.30;2.30;;;12.40;98.00;;;;;;4939430;29;20487;-77
2024/03/13 12:54:36;;;;;;;3.93;2.50;;;12.60;98.00;;;;;;4939388;29;20872;-76
2024/03/13 12:57:04;;;;;;;3.07;2.30;;;12.50;98.00;;;;;;4938185;29;20467;-76
2024/03/13 12:59:31;;;;;;;3.30;2.50;;;12.60;98.00;;;;;;4939010;29;20469;-76
2024/03/13 13:01:59;;;;;;;3.50;2.50;;;12.70;98.00;;;;;;4936541;29;20464;-75
2024/03/13 13:04:26;;;;;;;4.33;2.60;;;12.80;98.00;;;;;;4938842;29;20472;-76
2024/03/13 13:06:53;;;;;;;2.90;2.23;;;12.80;98.00;;;;;;4938331;29;20828;-75
2024/03/13 13:09:22;;;;;;;3.20;2.40;;;12.80;98.00;;;;;;4938406;29;20458;-75
2024/03/13 13:11:49;;;;;;;3.60;2.40;;;12.80;98.00;;;;;;4907322;29;20488;-75
2024/03/13 13:14:16;;;;;;;3.17;2.27;;;12.90;98.00;;;;;;4939428;29;21119;-75
2024/03/13 13:16:44;;;;;;;4.23;2.77;;;13.00;98.00;;;;;;4938349;29;20466;-75